Time;durP1;ratioP1;P1;durP2;ratioP2;P2;SDS_P1;SDS_P2;PMS_P1;PMS_P2;Temp;Humidity;BMP_temperature;BMP_pressure;BME280_temperature;BME280_humidity;BME280_pressure;Samples;Min_cycle;Max_cycle;Signal;HPM_P1;HPM_P2
2022/03/13 00:00:28;;;;;;;287.38;144.82;;;-3.30;1.00;;;;;;5077486;28;20045;-76
2022/03/13 00:02:55;;;;;;;317.95;156.95;;;-3.30;1.00;;;;;;5078084;28;20396;-77
2022/03/13 00:05:23;;;;;;;318.65;156.20;;;-3.30;1.00;;;;;;5077627;28;20052;-77
2022/03/13 00:07:56;;;;;;;306.73;150.88;;;-3.40;1.00;;;;;;5077001;28;20051;-76
2022/03/13 00:10:27;;;;;;;282.58;143.23;;;-3.40;1.00;;;;;;5077234;28;20044;-76
2022/03/13 00:12:56;;;;;;;276.38;140.88;;;-3.40;3.30;;;;;;5079756;28;20044;-77
2022/03/13 00:15:28;;;;;;;266.40;135.23;;;-3.40;7.50;;;;;;5077020;28;20401;-77
2022/03/13 00:17:59;;;;;;;318.25;158.65;;;-3.40;11.90;;;;;;5075898;28;20052;-76
2022/03/13 00:20:27;;;;;;;280.75;133.73;;;-3.40;7.10;;;;;;5061085;28;20072;-76
2022/03/13 00:22:57;;;;;;;250.85;126.78;;;-3.50;13.00;;;;;;5063286;28;20068;-77
2022/03/13 00:25:25;;;;;;;249.60;125.05;;;-3.50;14.50;;;;;;5076151;28;20407;-76
2022/03/13 00:27:52;;;;;;;255.52;129.75;;;-3.50;19.50;;;;;;5056624;28;20053;-77
2022/03/13 00:30:20;;;;;;;250.75;128.20;;;-3.50;16.20;;;;;;5057266;28;20443;-76
2022/03/13 00:32:48;;;;;;;262.05;132.93;;;-3.50;15.20;;;;;;5061468;28;20047;-76
2022/03/13 00:35:16;;;;;;;219.20;116.20;;;-3.50;21.80;;;;;;5084237;28;20119;-76
2022/03/13 00:37:43;;;;;;;224.40;113.47;;;-3.60;23.70;;;;;;5077489;28;20058;-77
2022/03/13 00:40:13;;;;;;;242.20;122.88;;;-3.60;25.80;;;;;;5079755;28;20087;-77
2022/03/13 00:42:43;;;;;;;253.68;125.65;;;-3.60;29.10;;;;;;5081726;28;20047;-76
2022/03/13 00:45:11;;;;;;;229.32;113.85;;;-3.70;29.40;;;;;;5081153;28;20063;-77
2022/03/13 00:47:38;;;;;;;207.30;98.72;;;-3.70;32.10;;;;;;5083117;28;20040;-76
2022/03/13 00:50:07;;;;;;;181.35;93.72;;;-3.80;36.40;;;;;;5084460;28;20040;-76
2022/03/13 00:52:34;;;;;;;212.00;107.30;;;-3.70;44.40;;;;;;5087744;28;20043;-77
2022/03/13 00:55:04;;;;;;;225.48;109.95;;;-3.80;32.30;;;;;;5088352;28;20068;-76
2022/03/13 00:57:33;;;;;;;228.32;111.75;;;-3.80;31.40;;;;;;5087627;28;20139;-77
2022/03/13 01:00:01;;;;;;;230.75;114.60;;;-3.90;34.30;;;;;;5091825;28;20047;-78
2022/03/13 01:02:29;;;;;;;220.18;111.75;;;-4.00;48.70;;;;;;5084645;28;20044;-75
2022/03/13 01:04:59;;;;;;;229.27;117.05;;;-4.00;51.40;;;;;;5083293;28;20048;-76
2022/03/13 01:07:27;;;;;;;222.35;114.05;;;-3.90;52.30;;;;;;5082343;28;20045;-77
2022/03/13 01:09:54;;;;;;;228.75;114.88;;;-4.00;52.00;;;;;;5085672;28;20052;-77
2022/03/13 01:12:22;;;;;;;223.98;112.47;;;-3.90;56.80;;;;;;5087605;28;20036;-77
2022/03/13 01:14:51;;;;;;;218.48;107.70;;;-3.90;55.50;;;;;;5087671;28;20040;-76
2022/03/13 01:17:20;;;;;;;222.35;111.47;;;-3.90;59.30;;;;;;5084767;28;20044;-77
2022/03/13 01:19:48;;;;;;;214.05;106.95;;;-3.90;58.70;;;;;;5072423;28;20048;-77
2022/03/13 01:22:16;;;;;;;220.10;109.97;;;-3.90;57.40;;;;;;5065165;28;20045;-76
2022/03/13 01:24:45;;;;;;;224.07;110.22;;;-3.90;55.10;;;;;;5064135;28;20443;-76
2022/03/13 01:27:15;;;;;;;234.40;113.00;;;-4.00;64.10;;;;;;5082913;28;20060;-77
2022/03/13 01:29:43;;;;;;;193.75;98.47;;;-4.00;68.20;;;;;;5086972;28;20055;-77
2022/03/13 01:32:14;;;;;;;176.10;92.70;;;-3.90;73.70;;;;;;5085115;28;20044;-77
2022/03/13 01:34:50;;;;;;;155.43;77.95;;;-4.00;64.70;;;;;;5080925;28;20071;-77
2022/03/13 01:37:38;;;;;;;160.98;74.93;;;-4.00;70.00;;;;;;5081487;28;20064;-77
2022/03/13 01:40:09;;;;;;;160.70;79.93;;;-4.10;64.60;;;;;;5078769;28;20040;-77
2022/03/13 01:42:40;;;;;;;146.90;73.95;;;-4.10;73.10;;;;;;5078595;28;20040;-77
2022/03/13 01:45:11;;;;;;;149.68;76.15;;;-4.10;67.60;;;;;;5080445;28;20044;-76
2022/03/13 01:47:41;;;;;;;167.82;84.97;;;-4.10;69.00;;;;;;5082247;28;20044;-76
2022/03/13 01:50:10;;;;;;;162.55;86.95;;;-4.20;64.20;;;;;;5085635;28;20047;-76
2022/03/13 01:52:40;;;;;;;177.70;94.88;;;-4.40;70.60;;;;;;5090026;28;20041;-77
2022/03/13 01:55:10;;;;;;;175.73;92.25;;;-4.50;79.20;;;;;;5088740;28;20044;-76
2022/03/13 01:57:38;;;;;;;182.68;94.78;;;-4.50;98.80;;;;;;5086194;28;20055;-77
2022/03/13 02:00:11;;;;;;;175.15;93.75;;;-4.50;99.90;;;;;;5075379;28;20041;-76
2022/03/13 02:02:48;;;;;;;155.40;83.20;;;-4.40;99.90;;;;;;5084776;28;20041;-77
2022/03/13 02:05:29;;;;;;;168.15;86.10;;;-4.40;99.90;;;;;;5081896;28;20066;-76
2022/03/13 02:07:57;;;;;;;212.75;105.10;;;-4.40;99.90;;;;;;5078571;28;20068;-77
2022/03/13 02:10:26;;;;;;;213.70;106.25;;;-4.50;99.90;;;;;;5086714;28;20056;-76
2022/03/13 02:12:55;;;;;;;184.13;95.95;;;-4.50;99.90;;;;;;5085555;28;20131;-76
2022/03/13 02:15:23;;;;;;;174.10;88.80;;;-4.50;99.90;;;;;;5082536;28;20045;-76
2022/03/13 02:17:54;;;;;;;175.10;92.25;;;-4.50;99.90;;;;;;5077105;28;20048;-76
2022/03/13 02:20:29;;;;;;;179.40;91.57;;;-4.50;99.90;;;;;;5078323;28;20098;-76
2022/03/13 02:23:02;;;;;;;165.00;84.13;;;-4.50;99.90;;;;;;5075065;28;20103;-77
2022/03/13 02:25:34;;;;;;;142.55;70.68;;;-4.50;99.90;;;;;;5077808;28;20157;-77
2022/03/13 02:28:02;;;;;;;158.85;80.88;;;-4.50;99.90;;;;;;5058745;28;20041;-77
2022/03/13 02:30:30;;;;;;;167.40;82.45;;;-4.50;99.90;;;;;;5056539;28;20052;-77
2022/03/13 02:32:57;;;;;;;165.95;84.80;;;-4.60;99.90;;;;;;5059533;28;20041;-77
2022/03/13 02:35:25;;;;;;;171.05;89.18;;;-4.60;99.90;;;;;;5077657;28;20060;-77
2022/03/13 02:37:52;;;;;;;160.13;84.05;;;-4.70;99.90;;;;;;5079331;28;20071;-77
2022/03/13 02:40:26;;;;;;;163.38;82.85;;;-4.70;99.90;;;;;;5078684;28;20059;-76
2022/03/13 02:42:55;;;;;;;144.60;71.75;;;-4.60;99.90;;;;;;5076844;28;20412;-77
2022/03/13 02:45:32;;;;;;;154.20;79.55;;;-4.60;99.90;;;;;;5077310;28;20411;-76
2022/03/13 02:48:01;;;;;;;153.27;78.70;;;-4.60;99.90;;;;;;5076946;28;20063;-77
2022/03/13 02:50:29;;;;;;;145.10;74.22;;;-4.60;99.90;;;;;;5077118;28;20407;-76
2022/03/13 02:52:59;;;;;;;147.13;74.18;;;-4.60;99.90;;;;;;5075805;28;20094;-76
2022/03/13 02:55:28;;;;;;;148.13;73.50;;;-4.60;99.90;;;;;;5076870;28;20052;-77
2022/03/13 02:57:56;;;;;;;150.60;75.63;;;-4.70;99.90;;;;;;5075293;28;20415;-77
2022/03/13 03:00:39;;;;;;;143.73;76.05;;;-4.70;99.90;;;;;;5072883;28;20571;-76
2022/03/13 03:03:07;;;;;;;149.82;79.75;;;-4.70;99.90;;;;;;5073096;28;20418;-77
2022/03/13 03:05:35;;;;;;;162.73;84.32;;;-4.80;99.90;;;;;;5074162;28;20114;-77
2022/03/13 03:08:03;;;;;;;159.20;88.25;;;-4.80;99.90;;;;;;5074501;28;20143;-77
2022/03/13 03:10:34;;;;;;;158.25;84.72;;;-4.90;99.90;;;;;;5075141;28;20052;-77
2022/03/13 03:13:02;;;;;;;163.45;84.60;;;-4.80;99.90;;;;;;5076336;28;20080;-75
2022/03/13 03:15:29;;;;;;;151.43;83.45;;;-4.90;99.90;;;;;;5073802;28;20416;-77
2022/03/13 03:17:57;;;;;;;148.27;78.45;;;-4.80;99.90;;;;;;5073257;28;20040;-77
2022/03/13 03:20:26;;;;;;;134.95;73.35;;;-4.80;99.90;;;;;;5074355;28;20079;-76
2022/03/13 03:22:54;;;;;;;128.55;69.55;;;-4.80;99.90;;;;;;5074093;28;20033;-76
2022/03/13 03:25:23;;;;;;;132.63;69.50;;;-4.90;99.90;;;;;;5075065;28;20463;-78
2022/03/13 03:27:53;;;;;;;126.45;65.47;;;-5.00;99.90;;;;;;5074346;28;20041;-75
2022/03/13 03:30:21;;;;;;;123.38;65.72;;;-5.00;99.90;;;;;;5073781;28;20055;-76
2022/03/13 03:32:49;;;;;;;114.57;61.45;;;-5.00;99.90;;;;;;5072788;28;20454;-77
2022/03/13 03:35:19;;;;;;;103.97;55.10;;;-5.00;99.90;;;;;;5072285;28;20506;-77
2022/03/13 03:37:49;;;;;;;99.38;53.55;;;-5.00;99.90;;;;;;5072514;28;20496;-76
2022/03/13 03:40:17;;;;;;;103.85;56.75;;;-5.10;99.90;;;;;;5074039;28;20044;-76
2022/03/13 03:42:45;;;;;;;102.75;54.72;;;-5.10;99.90;;;;;;5073091;28;20036;-75
2022/03/13 03:45:16;;;;;;;105.18;55.85;;;-5.10;99.90;;;;;;5073106;28;20051;-77
2022/03/13 03:47:44;;;;;;;114.78;62.20;;;-5.10;99.90;;;;;;5072002;28;20049;-77
2022/03/13 03:50:15;;;;;;;112.20;62.28;;;-5.10;99.90;;;;;;5072503;28;20325;-77
2022/03/13 03:52:42;;;;;;;109.43;61.78;;;-5.20;99.90;;;;;;5073549;28;20040;-76
2022/03/13 03:55:10;;;;;;;114.93;59.80;;;-5.20;99.90;;;;;;5073324;28;20120;-77
2022/03/13 03:57:38;;;;;;;115.05;60.25;;;-5.20;99.90;;;;;;5072974;28;20060;-76
2022/03/13 04:00:08;;;;;;;130.88;67.00;;;-5.20;99.90;;;;;;5072120;28;20044;-76
2022/03/13 04:02:42;;;;;;;122.35;65.57;;;-5.20;99.90;;;;;;5073599;28;20388;-77
2022/03/13 04:05:11;;;;;;;113.03;63.00;;;-5.20;99.90;;;;;;5071812;28;20128;-76
2022/03/13 04:07:39;;;;;;;113.57;62.45;;;-5.20;99.90;;;;;;5072160;28;20079;-77
2022/03/13 04:10:09;;;;;;;104.55;57.17;;;-5.30;99.90;;;;;;5072967;28;20044;-76
2022/03/13 04:12:36;;;;;;;102.72;55.13;;;-5.30;99.90;;;;;;5071890;28;20086;-77
2022/03/13 04:15:05;;;;;;;95.15;53.47;;;-5.30;99.90;;;;;;5072144;28;20143;-76
2022/03/13 04:17:33;;;;;;;96.35;52.88;;;-5.30;99.90;;;;;;5073038;28;20043;-76
2022/03/13 04:20:06;;;;;;;101.05;55.72;;;-5.40;99.90;;;;;;5072059;28;20044;-76
2022/03/13 04:22:34;;;;;;;104.75;59.20;;;-5.40;99.90;;;;;;5073205;28;20463;-77
2022/03/13 04:25:02;;;;;;;108.57;59.95;;;-5.40;99.90;;;;;;5071960;28;20051;-77
2022/03/13 04:27:30;;;;;;;109.13;60.65;;;-5.40;99.90;;;;;;5071713;28;20466;-77
2022/03/13 04:29:58;;;;;;;113.07;59.40;;;-5.30;99.90;;;;;;5074973;28;20055;-77
2022/03/13 04:32:26;;;;;;;107.07;58.33;;;-5.30;99.90;;;;;;5075972;28;20067;-75
2022/03/13 04:34:54;;;;;;;112.88;58.83;;;-5.30;99.90;;;;;;5076275;28;20094;-76
2022/03/13 04:37:23;;;;;;;110.55;56.15;;;-5.30;99.90;;;;;;5076383;28;20102;-76
2022/03/13 04:39:50;;;;;;;111.75;56.30;;;-5.40;99.90;;;;;;5076559;28;20071;-77
2022/03/13 04:42:19;;;;;;;113.72;58.75;;;-5.50;99.90;;;;;;5076764;28;20036;-77
2022/03/13 04:44:46;;;;;;;115.57;61.22;;;-5.50;99.90;;;;;;5075143;28;20055;-76
2022/03/13 04:47:14;;;;;;;121.60;60.42;;;-5.30;99.90;;;;;;5055346;28;20049;-76
2022/03/13 04:49:42;;;;;;;118.43;60.40;;;-5.40;99.90;;;;;;5071581;28;20094;-77
2022/03/13 04:52:09;;;;;;;113.50;58.10;;;-5.40;99.90;;;;;;5055558;28;20045;-77
2022/03/13 04:54:38;;;;;;;97.50;50.42;;;-5.40;99.90;;;;;;5056646;28;20033;-77
2022/03/13 04:57:06;;;;;;;89.10;48.60;;;-5.40;99.90;;;;;;5056770;28;20122;-77
2022/03/13 04:59:34;;;;;;;88.32;47.25;;;-5.40;99.90;;;;;;5077049;28;20040;-76
2022/03/13 05:02:01;;;;;;;78.63;44.95;;;-5.40;99.90;;;;;;5077969;28;20074;-76
2022/03/13 05:04:29;;;;;;;86.13;46.63;;;-5.30;99.90;;;;;;5076027;28;20044;-76
2022/03/13 05:06:56;;;;;;;88.80;45.65;;;-5.30;99.90;;;;;;5091916;28;20060;-76
2022/03/13 05:09:24;;;;;;;87.88;45.22;;;-5.30;99.90;;;;;;5096303;28;20048;-76
2022/03/13 05:11:53;;;;;;;88.28;45.42;;;-5.30;99.90;;;;;;5084989;28;20051;-76
2022/03/13 05:14:21;;;;;;;80.50;44.78;;;-5.30;99.90;;;;;;5077110;28;20068;-76
2022/03/13 05:16:49;;;;;;;88.78;47.08;;;-5.30;99.90;;;;;;5076313;28;20140;-75
2022/03/13 05:19:16;;;;;;;97.50;53.08;;;-5.30;99.90;;;;;;5071281;28;20041;-76
2022/03/13 05:21:44;;;;;;;96.30;54.17;;;-5.30;99.90;;;;;;5057682;28;20480;-76
2022/03/13 05:24:12;;;;;;;107.65;56.50;;;-5.40;99.90;;;;;;5057476;28;20068;-76
2022/03/13 05:26:39;;;;;;;116.47;62.33;;;-5.40;99.90;;;;;;5067337;28;20059;-73
2022/03/13 05:29:09;;;;;;;102.65;56.08;;;-5.40;99.90;;;;;;5075143;28;20582;-73
2022/03/13 05:31:36;;;;;;;101.45;56.17;;;-5.30;99.90;;;;;;5075572;28;20045;-74
2022/03/13 05:34:05;;;;;;;103.43;57.45;;;-5.40;99.90;;;;;;5081113;28;20503;-73
2022/03/13 05:36:32;;;;;;;93.72;52.97;;;-5.30;99.90;;;;;;5094710;28;20063;-74
2022/03/13 05:39:00;;;;;;;102.72;54.03;;;-5.20;99.90;;;;;;5074529;28;20381;-74
2022/03/13 05:41:28;;;;;;;107.95;58.17;;;-5.00;99.90;;;;;;5074536;28;20060;-73
2022/03/13 05:43:56;;;;;;;106.47;56.35;;;-5.00;99.90;;;;;;5078011;28;20040;-73
2022/03/13 05:46:25;;;;;;;113.05;57.83;;;-4.90;99.90;;;;;;5096976;28;20089;-73
2022/03/13 05:48:52;;;;;;;116.38;56.38;;;-4.70;99.90;;;;;;5097750;28;20119;-74
2022/03/13 05:51:19;;;;;;;100.70;52.90;;;-4.50;99.90;;;;;;5098496;28;20139;-73
2022/03/13 05:53:47;;;;;;;85.47;43.53;;;-4.40;99.90;;;;;;5095935;28;20038;-73
2022/03/13 05:56:15;;;;;;;82.88;41.92;;;-4.30;99.90;;;;;;5097269;28;20048;-76
2022/03/13 05:58:42;;;;;;;86.13;42.53;;;-4.20;99.90;;;;;;5077326;28;20106;-74
2022/03/13 06:01:10;;;;;;;102.57;51.70;;;-4.20;99.90;;;;;;5077838;28;20040;-73
2022/03/13 06:03:39;;;;;;;141.20;68.07;;;-4.10;99.90;;;;;;5080450;28;20036;-73
2022/03/13 06:06:08;;;;;;;139.98;65.93;;;-4.10;99.30;;;;;;5094961;28;20435;-73
2022/03/13 06:08:36;;;;;;;117.97;57.22;;;-4.00;95.70;;;;;;5095307;28;20052;-74
2022/03/13 06:11:03;;;;;;;103.78;52.42;;;-3.90;78.30;;;;;;5084444;28;20043;-74
2022/03/13 06:13:31;;;;;;;100.30;50.55;;;-3.80;56.70;;;;;;5086789;28;20036;-74
2022/03/13 06:15:59;;;;;;;113.03;52.58;;;-3.70;36.70;;;;;;5086489;28;20044;-74
2022/03/13 06:18:27;;;;;;;107.35;52.47;;;-3.40;27.90;;;;;;5072593;28;20056;-74
2022/03/13 06:20:56;;;;;;;109.57;54.03;;;-3.20;20.70;;;;;;5074263;28;20055;-75
2022/03/13 06:23:24;;;;;;;114.60;57.13;;;-3.00;3.30;;;;;;5073787;28;20036;-73
2022/03/13 06:25:51;;;;;;;120.60;57.33;;;-2.80;1.00;;;;;;5073661;28;20088;-74
2022/03/13 06:28:21;;;;;;;121.20;58.22;;;-2.70;1.00;;;;;;5074025;28;20036;-74
2022/03/13 06:30:49;;;;;;;114.00;57.40;;;-2.50;1.00;;;;;;5073969;28;20048;-75
2022/03/13 06:33:16;;;;;;;119.40;57.30;;;-2.40;1.00;;;;;;5074183;28;20075;-74
2022/03/13 06:35:43;;;;;;;124.75;62.17;;;-2.30;1.00;;;;;;5075523;28;20399;-73
2022/03/13 06:38:12;;;;;;;129.57;61.70;;;-2.20;1.00;;;;;;5073621;28;20395;-75
2022/03/13 06:40:40;;;;;;;127.10;64.18;;;-2.00;1.00;;;;;;5072811;28;20056;-74
2022/03/13 06:43:08;;;;;;;137.27;67.05;;;-1.80;1.00;;;;;;5072873;28;20059;-74
2022/03/13 06:45:36;;;;;;;134.57;67.22;;;-1.60;1.00;;;;;;5073672;28;20072;-75
2022/03/13 06:48:04;;;;;;;135.18;64.72;;;-1.30;1.00;;;;;;5074641;28;20127;-75
2022/03/13 06:50:32;;;;;;;120.15;60.50;;;-1.10;1.00;;;;;;5072724;28;20045;-75
2022/03/13 06:52:59;;;;;;;95.40;50.25;;;-1.00;1.00;;;;;;5071524;28;20047;-74
2022/03/13 06:55:29;;;;;;;109.55;54.80;;;-0.90;1.00;;;;;;5074072;28;20426;-75
2022/03/13 06:57:56;;;;;;;108.30;55.95;;;-0.90;1.00;;;;;;5074227;28;20583;-74
2022/03/13 07:00:23;;;;;;;116.63;55.97;;;-0.70;1.00;;;;;;5074113;28;20047;-74
2022/03/13 07:02:51;;;;;;;122.30;63.58;;;-0.50;1.00;;;;;;5074216;28;20107;-75
2022/03/13 07:05:21;;;;;;;118.63;61.47;;;-0.30;1.00;;;;;;5073547;28;20048;-76
2022/03/13 07:07:48;;;;;;;123.43;61.42;;;-0.20;1.00;;;;;;5074433;28;20041;-74
2022/03/13 07:10:16;;;;;;;124.95;64.47;;;0.00;1.00;;;;;;5074477;28;20079;-75
2022/03/13 07:12:45;;;;;;;119.82;61.72;;;0.30;1.00;;;;;;5072490;28;20889;-76
2022/03/13 07:15:14;;;;;;;115.78;60.17;;;0.40;1.00;;;;;;5073699;28;20043;-75
2022/03/13 07:17:42;;;;;;;110.80;56.88;;;0.80;1.00;;;;;;5073469;28;20052;-75
2022/03/13 07:20:11;;;;;;;106.55;52.33;;;1.30;1.00;;;;;;5059567;28;20048;-73
2022/03/13 07:22:40;;;;;;;103.25;54.45;;;1.70;1.00;;;;;;5073327;28;20450;-76
2022/03/13 07:25:08;;;;;;;94.20;50.92;;;1.90;1.00;;;;;;5073613;28;20048;-76
2022/03/13 07:27:36;;;;;;;109.38;55.55;;;2.00;1.00;;;;;;5072988;28;20052;-75
2022/03/13 07:30:06;;;;;;;108.40;54.90;;;2.30;1.00;;;;;;5072919;28;20124;-75
2022/03/13 07:32:35;;;;;;;82.55;42.70;;;2.40;1.00;;;;;;5072090;28;20552;-75
2022/03/13 07:35:03;;;;;;;92.55;45.72;;;2.60;1.00;;;;;;5080736;28;20036;-75
2022/03/13 07:37:30;;;;;;;85.53;41.60;;;2.90;1.00;;;;;;5096754;28;20064;-74
2022/03/13 07:39:58;;;;;;;70.20;36.05;;;3.30;1.00;;;;;;5095565;28;20072;-76
2022/03/13 07:42:26;;;;;;;71.88;38.75;;;3.50;1.00;;;;;;5093601;28;20046;-76
2022/03/13 07:44:54;;;;;;;67.20;35.13;;;3.60;1.00;;;;;;5093263;28;20047;-75
2022/03/13 07:47:22;;;;;;;57.25;33.03;;;3.70;1.00;;;;;;5083823;28;20139;-74
2022/03/13 07:49:50;;;;;;;48.08;26.58;;;3.90;1.00;;;;;;5073513;28;20051;-74
2022/03/13 07:52:17;;;;;;;47.45;23.98;;;4.10;1.00;;;;;;5074620;28;20545;-74
2022/03/13 07:54:45;;;;;;;46.05;24.27;;;4.40;1.00;;;;;;5073231;28;20064;-74
2022/03/13 07:57:12;;;;;;;47.35;25.48;;;4.60;1.00;;;;;;5073404;28;20476;-75
2022/03/13 07:59:40;;;;;;;41.88;24.10;;;4.80;1.00;;;;;;5073602;28;20403;-75
2022/03/13 08:02:07;;;;;;;41.50;21.52;;;4.90;1.00;;;;;;5078963;28;20060;-75
2022/03/13 08:04:36;;;;;;;29.90;16.17;;;5.10;1.00;;;;;;5089961;28;20045;-74
2022/03/13 08:07:05;;;;;;;32.72;16.95;;;5.00;1.00;;;;;;5090105;28;20114;-74
2022/03/13 08:09:34;;;;;;;33.03;17.25;;;5.10;1.00;;;;;;5096454;28;20041;-74
2022/03/13 08:12:02;;;;;;;28.92;17.30;;;5.20;1.00;;;;;;5098685;28;20055;-74
2022/03/13 08:14:29;;;;;;;28.15;15.65;;;5.10;1.00;;;;;;5085187;28;20040;-74
2022/03/13 08:16:58;;;;;;;28.13;17.00;;;5.20;1.00;;;;;;5077572;28;20098;-73
2022/03/13 08:19:25;;;;;;;29.33;18.20;;;5.50;1.00;;;;;;5068154;28;20083;-75
2022/03/13 08:21:54;;;;;;;30.23;17.08;;;5.60;1.00;;;;;;5059890;28;20040;-74
2022/03/13 08:24:22;;;;;;;25.13;15.85;;;5.70;1.00;;;;;;5057345;28;20045;-74
2022/03/13 08:26:49;;;;;;;28.02;15.43;;;5.70;1.00;;;;;;5071181;28;20056;-73
2022/03/13 08:29:16;;;;;;;29.05;18.10;;;5.60;1.00;;;;;;5076794;28;20049;-74
2022/03/13 08:31:44;;;;;;;29.63;16.27;;;5.80;1.00;;;;;;5075349;28;20045;-73
2022/03/13 08:34:12;;;;;;;27.55;16.52;;;5.90;1.00;;;;;;5076285;28;20569;-75
2022/03/13 08:36:43;;;;;;;26.90;16.95;;;6.10;1.00;;;;;;5075943;28;20048;-75
2022/03/13 08:39:12;;;;;;;29.05;17.35;;;6.30;1.00;;;;;;5076250;28;20052;-75
2022/03/13 08:41:40;;;;;;;31.67;17.90;;;6.30;1.00;;;;;;5075159;28;20499;-75
2022/03/13 08:44:08;;;;;;;38.42;21.10;;;6.50;1.00;;;;;;5076415;28;20132;-75
2022/03/13 08:46:38;;;;;;;38.15;23.25;;;6.60;1.00;;;;;;5076452;28;20506;-75
2022/03/13 08:49:07;;;;;;;42.22;22.38;;;6.50;1.00;;;;;;5076138;28;20478;-75
2022/03/13 08:51:34;;;;;;;45.15;24.23;;;6.30;1.00;;;;;;5075175;28;20044;-74
2022/03/13 08:54:02;;;;;;;41.00;24.48;;;6.40;1.00;;;;;;5074816;28;20066;-74
2022/03/13 08:56:31;;;;;;;37.92;22.25;;;6.50;1.00;;;;;;5075129;28;20041;-74
2022/03/13 08:58:59;;;;;;;42.92;22.70;;;6.70;1.00;;;;;;5076618;28;20048;-75
2022/03/13 09:01:26;;;;;;;36.53;20.95;;;6.80;1.00;;;;;;5075214;28;20040;-74
2022/03/13 09:03:54;;;;;;;35.55;22.13;;;6.90;1.00;;;;;;5094148;28;20454;-74
2022/03/13 09:06:22;;;;;;;37.42;22.40;;;6.90;1.00;;;;;;5094979;28;20496;-74
2022/03/13 09:08:50;;;;;;;40.28;21.73;;;6.90;1.00;;;;;;5091083;28;20040;-75
2022/03/13 09:11:17;;;;;;;42.50;24.05;;;7.00;1.00;;;;;;5075671;28;20037;-76
2022/03/13 09:13:47;;;;;;;44.10;23.67;;;7.10;1.00;;;;;;5074006;28;20042;-74
2022/03/13 09:16:14;;;;;;;36.05;21.52;;;7.10;1.00;;;;;;5075227;28;20045;-76
2022/03/13 09:18:42;;;;;;;41.20;23.60;;;7.30;1.00;;;;;;5074191;28;20051;-75
2022/03/13 09:21:09;;;;;;;29.55;17.52;;;7.30;1.00;;;;;;5069662;28;20036;-74
2022/03/13 09:23:37;;;;;;;32.97;20.55;;;7.20;1.00;;;;;;5110259;28;20050;-74
2022/03/13 09:26:05;;;;;;;41.47;24.40;;;7.30;1.00;;;;;;5089439;28;20055;-74
2022/03/13 09:28:33;;;;;;;45.28;24.20;;;7.20;1.00;;;;;;5104105;28;20135;-74
2022/03/13 09:31:02;;;;;;;42.10;24.95;;;7.10;1.00;;;;;;5087940;28;20052;-74
2022/03/13 09:33:30;;;;;;;40.78;22.67;;;7.00;1.00;;;;;;5075196;28;20047;-75
2022/03/13 09:35:58;;;;;;;38.83;22.02;;;7.00;1.00;;;;;;5074018;28;20054;-75
2022/03/13 09:38:26;;;;;;;38.55;22.73;;;7.00;1.00;;;;;;5075485;28;20094;-75
2022/03/13 09:40:54;;;;;;;45.13;23.80;;;6.90;1.00;;;;;;5099804;28;20067;-75
2022/03/13 09:43:22;;;;;;;42.05;24.85;;;7.00;1.00;;;;;;5087463;28;20049;-75
2022/03/13 09:45:49;;;;;;;46.15;26.77;;;7.10;1.00;;;;;;5074728;28;20123;-74
2022/03/13 09:48:21;;;;;;;55.67;30.88;;;7.20;1.00;;;;;;5074213;28;20047;-75
2022/03/13 09:50:49;;;;;;;58.33;30.75;;;7.50;1.00;;;;;;5077469;28;20040;-74
2022/03/13 09:53:17;;;;;;;51.90;26.65;;;7.60;1.00;;;;;;5077259;28;20032;-74
2022/03/13 09:55:45;;;;;;;41.83;25.08;;;7.80;1.00;;;;;;5074308;28;20050;-75
2022/03/13 09:58:12;;;;;;;45.22;24.02;;;7.80;1.00;;;;;;5075434;28;20047;-75
2022/03/13 10:00:40;;;;;;;33.92;20.85;;;7.90;1.00;;;;;;5073243;28;20411;-75
2022/03/13 10:03:08;;;;;;;80.15;23.52;;;8.00;1.00;;;;;;5080092;28;20045;-75
2022/03/13 10:05:44;;;;;;;32.25;18.73;;;8.00;1.00;;;;;;5086179;28;20048;-75
2022/03/13 10:08:12;;;;;;;39.20;19.85;;;8.10;1.00;;;;;;5053514;28;20045;-76
2022/03/13 10:10:44;;;;;;;34.28;18.33;;;8.20;1.00;;;;;;5070196;28;20132;-73
2022/03/13 10:13:13;;;;;;;30.55;19.55;;;8.20;1.00;;;;;;5073109;28;20127;-74
2022/03/13 10:15:42;;;;;;;34.72;19.25;;;8.40;1.00;;;;;;5075395;28;20032;-75
2022/03/13 10:18:15;;;;;;;37.55;23.58;;;8.40;1.00;;;;;;5074712;28;20070;-75
2022/03/13 10:20:44;;;;;;;39.35;22.70;;;8.40;1.00;;;;;;5075535;28;20040;-73
2022/03/13 10:23:16;;;;;;;32.65;19.05;;;8.40;1.00;;;;;;5075734;28;20043;-74
2022/03/13 10:25:44;;;;;;;42.42;23.70;;;8.30;1.00;;;;;;5073037;28;20452;-74
2022/03/13 10:28:18;;;;;;;37.58;22.23;;;8.30;1.00;;;;;;5075276;28;20051;-73
2022/03/13 10:30:48;;;;;;;45.78;25.92;;;8.30;1.00;;;;;;5072759;28;20492;-74
2022/03/13 10:33:16;;;;;;;50.33;25.00;;;8.40;1.00;;;;;;5072062;28;20138;-76
2022/03/13 10:35:44;;;;;;;44.83;22.52;;;8.50;1.00;;;;;;5073236;28;20484;-73
2022/03/13 10:38:18;;;;;;;39.70;21.70;;;8.70;1.00;;;;;;5073192;28;20458;-74
2022/03/13 10:40:56;;;;;;;31.67;17.58;;;8.70;1.00;;;;;;5074537;28;20391;-74
2022/03/13 10:43:26;;;;;;;26.17;12.75;;;8.90;1.00;;;;;;5073196;28;20072;-74
2022/03/13 10:45:59;;;;;;;21.52;11.32;;;8.80;1.00;;;;;;5056485;28;20135;-74
2022/03/13 10:48:30;;;;;;;20.85;11.50;;;8.80;1.00;;;;;;5073682;28;20508;-75
2022/03/13 10:51:00;;;;;;;18.20;8.98;;;8.80;1.00;;;;;;5072661;28;20101;-75
2022/03/13 10:53:29;;;;;;;12.35;7.68;;;8.90;1.00;;;;;;5073244;28;20098;-73
2022/03/13 10:56:08;;;;;;;16.38;8.77;;;9.00;1.00;;;;;;5075390;28;20036;-75
2022/03/13 10:58:39;;;;;;;12.48;6.75;;;9.00;1.00;;;;;;5074354;28;20053;-75
2022/03/13 11:01:09;;;;;;;13.98;7.95;;;9.00;1.00;;;;;;5073635;28;20064;-73
2022/03/13 11:03:38;;;;;;;11.98;7.30;;;8.90;1.00;;;;;;5074439;28;20067;-74
2022/03/13 11:06:10;;;;;;;14.40;7.25;;;8.90;1.00;;;;;;5073056;28;20058;-74
2022/03/13 11:08:38;;;;;;;25.45;9.80;;;8.80;1.00;;;;;;5073542;28;20052;-73
2022/03/13 11:11:06;;;;;;;21.90;10.13;;;8.80;1.00;;;;;;5074169;28;20136;-74
2022/03/13 11:13:36;;;;;;;19.88;9.68;;;8.90;1.00;;;;;;5072946;28;20094;-74
2022/03/13 11:16:09;;;;;;;18.42;11.02;;;9.00;1.00;;;;;;5074362;28;20047;-73
2022/03/13 11:18:38;;;;;;;15.95;8.68;;;9.10;1.00;;;;;;5072773;28;20139;-72
2022/03/13 11:21:08;;;;;;;16.58;10.13;;;9.20;1.00;;;;;;5073862;28;20491;-75
2022/03/13 11:23:37;;;;;;;15.60;8.23;;;9.20;1.00;;;;;;5072622;28;20052;-74
2022/03/13 11:26:06;;;;;;;16.73;9.07;;;9.30;1.00;;;;;;5087861;22;20044;-74
2022/03/13 11:28:34;;;;;;;15.75;8.48;;;9.20;1.00;;;;;;5086609;28;20045;-76
2022/03/13 11:31:01;;;;;;;15.10;8.18;;;9.10;1.00;;;;;;5066491;28;20049;-77
2022/03/13 11:33:34;;;;;;;14.82;8.73;;;9.20;1.00;;;;;;5057773;28;20074;-75
2022/03/13 11:36:28;;;;;;;14.98;9.25;;;9.20;1.00;;;;;;5069327;28;20032;-76
2022/03/13 11:38:59;;;;;;;18.98;10.63;;;9.30;1.00;;;;;;5097400;28;20040;-75
2022/03/13 11:41:41;;;;;;;19.15;10.35;;;9.30;1.00;;;;;;5081755;28;20048;-76
2022/03/13 11:44:37;;;;;;;19.23;11.00;;;9.50;1.00;;;;;;5099654;28;20036;-76
2022/03/13 11:47:24;;;;;;;20.10;10.48;;;9.50;1.00;;;;;;5081712;28;20062;-76
2022/03/13 11:49:53;;;;;;;18.40;10.07;;;9.40;1.00;;;;;;5097049;28;20082;-76
2022/03/13 11:52:31;;;;;;;20.70;11.18;;;9.50;1.00;;;;;;5108829;28;20032;-76
2022/03/13 11:55:04;;;;;;;20.75;10.70;;;9.70;1.00;;;;;;5102338;28;20036;-76
2022/03/13 11:57:45;;;;;;;14.88;9.10;;;9.90;1.00;;;;;;5100266;28;20057;-76
2022/03/13 12:00:30;;;;;;;19.70;10.70;;;9.80;1.00;;;;;;5099719;28;20479;-76
2022/03/13 12:03:13;;;;;;;16.40;8.88;;;9.90;1.00;;;;;;5099062;28;20067;-76
2022/03/13 12:05:51;;;;;;;14.68;7.95;;;9.90;1.00;;;;;;5081582;28;20117;-76
2022/03/13 12:08:22;;;;;;;14.80;8.70;;;9.80;1.00;;;;;;5081309;28;20059;-76
2022/03/13 12:10:52;;;;;;;22.17;12.75;;;9.80;1.00;;;;;;5080747;28;20139;-76
2022/03/13 12:13:23;;;;;;;18.52;10.57;;;9.90;1.00;;;;;;5116252;28;20067;-75
2022/03/13 12:15:51;;;;;;;14.13;9.40;;;10.00;1.00;;;;;;5086151;28;20044;-76
2022/03/13 12:18:27;;;;;;;18.50;9.48;;;10.00;1.00;;;;;;5099474;28;20078;-76
2022/03/13 12:21:10;;;;;;;22.00;11.27;;;10.00;1.00;;;;;;5080164;28;20052;-75
2022/03/13 12:23:39;;;;;;;21.90;11.98;;;10.20;1.00;;;;;;5079700;28;20045;-75
2022/03/13 12:26:17;;;;;;;19.10;10.80;;;10.30;1.00;;;;;;5079460;28;20499;-75
2022/03/13 12:28:45;;;;;;;15.48;9.23;;;10.50;1.00;;;;;;5061546;28;20172;-75
2022/03/13 12:31:12;;;;;;;12.82;7.50;;;10.50;1.00;;;;;;5078600;28;20476;-76
2022/03/13 12:33:44;;;;;;;14.20;7.85;;;10.40;1.00;;;;;;5065418;28;20049;-76
2022/03/13 12:36:12;;;;;;;10.68;6.03;;;10.40;1.00;;;;;;5077208;28;20045;-76
2022/03/13 12:38:43;;;;;;;8.90;5.03;;;10.40;1.00;;;;;;5077992;28;20131;-76
2022/03/13 12:41:12;;;;;;;19.50;8.50;;;10.50;1.00;;;;;;5079066;28;20095;-78